sensor_id;sensor_type;location;lat;lon;timestamp;P1;durP1;ratioP1;P2;durP2;ratioP2
3259;SDS011;68938;48.150;14.004;2023-09-12T00:02:17;23.87;;;21.83;;
3259;SDS011;68938;48.150;14.004;2023-09-12T00:04:45;25.50;;;23.30;;
3259;SDS011;68938;48.150;14.004;2023-09-12T00:07:12;24.80;;;22.50;;
3259;SDS011;68938;48.150;14.004;2023-09-12T00:09:39;25.67;;;23.27;;
3259;SDS011;68938;48.150;14.004;2023-09-12T00:12:06;23.90;;;21.90;;
3259;SDS011;68938;48.150;14.004;2023-09-12T00:14:35;25.70;;;23.43;;
3259;SDS011;68938;48.150;14.004;2023-09-12T00:17:03;25.50;;;23.10;;
3259;SDS011;68938;48.150;14.004;2023-09-12T00:19:30;26.00;;;23.70;;
3259;SDS011;68938;48.150;14.004;2023-09-12T00:21:57;26.53;;;24.13;;
3259;SDS011;68938;48.150;14.004;2023-09-12T00:24:24;25.63;;;23.10;;
3259;SDS011;68938;48.150;14.004;2023-09-12T00:26:52;26.80;;;24.37;;
3259;SDS011;68938;48.150;14.004;2023-09-12T00:29:22;25.73;;;23.13;;
3259;SDS011;68938;48.150;14.004;2023-09-12T00:31:49;23.33;;;21.40;;
3259;SDS011;68938;48.150;14.004;2023-09-12T00:34:16;25.40;;;22.80;;
3259;SDS011;68938;48.150;14.004;2023-09-12T00:36:45;24.67;;;22.10;;
3259;SDS011;68938;48.150;14.004;2023-09-12T00:39:12;24.80;;;21.43;;
3259;SDS011;68938;48.150;14.004;2023-09-12T00:41:39;24.23;;;21.83;;
3259;SDS011;68938;48.150;14.004;2023-09-12T00:44:09;24.10;;;22.00;;
3259;SDS011;68938;48.150;14.004;2023-09-12T00:46:36;25.83;;;22.93;;
3259;SDS011;68938;48.150;14.004;2023-09-12T00:49:05;24.43;;;22.13;;
3259;SDS011;68938;48.150;14.004;2023-09-12T00:51:34;24.90;;;22.67;;
3259;SDS011;68938;48.150;14.004;2023-09-12T00:54:03;27.30;;;24.60;;
3259;SDS011;68938;48.150;14.004;2023-09-12T00:56:32;26.43;;;24.00;;
3259;SDS011;68938;48.150;14.004;2023-09-12T00:59:00;27.50;;;24.70;;
3259;SDS011;68938;48.150;14.004;2023-09-12T01:01:31;25.90;;;23.50;;
3259;SDS011;68938;48.150;14.004;2023-09-12T01:03:59;24.83;;;22.73;;
3259;SDS011;68938;48.150;14.004;2023-09-12T01:06:28;25.40;;;23.00;;
3259;SDS011;68938;48.150;14.004;2023-09-12T01:08:56;25.73;;;23.57;;
3259;SDS011;68938;48.150;14.004;2023-09-12T01:11:25;25.73;;;23.50;;
3259;SDS011;68938;48.150;14.004;2023-09-12T01:13:54;24.93;;;22.73;;
3259;SDS011;68938;48.150;14.004;2023-09-12T01:16:22;26.40;;;23.97;;
3259;SDS011;68938;48.150;14.004;2023-09-12T01:18:49;26.97;;;24.53;;
3259;SDS011;68938;48.150;14.004;2023-09-12T01:21:35;26.37;;;24.03;;
3259;SDS011;68938;48.150;14.004;2023-09-12T01:29:49;23.63;;;21.50;;
3259;SDS011;68938;48.150;14.004;2023-09-12T01:32:22;25.70;;;23.30;;
3259;SDS011;68938;48.150;14.004;2023-09-12T01:34:49;25.03;;;22.77;;
3259;SDS011;68938;48.150;14.004;2023-09-12T01:37:17;25.30;;;22.87;;
3259;SDS011;68938;48.150;14.004;2023-09-12T01:39:45;25.53;;;23.20;;
3259;SDS011;68938;48.150;14.004;2023-09-12T01:42:17;27.80;;;25.27;;
3259;SDS011;68938;48.150;14.004;2023-09-12T01:44:49;25.80;;;23.20;;
3259;SDS011;68938;48.150;14.004;2023-09-12T01:47:22;23.60;;;21.40;;
3259;SDS011;68938;48.150;14.004;2023-09-12T01:49:55;22.70;;;20.60;;
3259;SDS011;68938;48.150;14.004;2023-09-12T01:52:25;24.23;;;21.83;;
3259;SDS011;68938;48.150;14.004;2023-09-12T01:54:56;23.47;;;21.30;;
3259;SDS011;68938;48.150;14.004;2023-09-12T01:57:25;25.37;;;22.60;;
3259;SDS011;68938;48.150;14.004;2023-09-12T01:59:52;24.00;;;22.00;;
3259;SDS011;68938;48.150;14.004;2023-09-12T02:02:19;26.67;;;24.17;;
3259;SDS011;68938;48.150;14.004;2023-09-12T02:04:50;24.37;;;22.07;;
3259;SDS011;68938;48.150;14.004;2023-09-12T02:07:32;24.30;;;22.20;;
3259;SDS011;68938;48.150;14.004;2023-09-12T02:10:04;24.10;;;22.00;;
3259;SDS011;68938;48.150;14.004;2023-09-12T02:12:32;23.07;;;20.97;;
3259;SDS011;68938;48.150;14.004;2023-09-12T02:15:00;24.40;;;22.20;;
3259;SDS011;68938;48.150;14.004;2023-09-12T02:17:27;26.33;;;23.60;;
3259;SDS011;68938;48.150;14.004;2023-09-12T02:19:56;25.57;;;23.17;;
3259;SDS011;68938;48.150;14.004;2023-09-12T02:22:23;24.77;;;22.40;;
3259;SDS011;68938;48.150;14.004;2023-09-12T02:24:52;25.50;;;23.17;;
3259;SDS011;68938;48.150;14.004;2023-09-12T02:27:19;26.07;;;23.80;;
3259;SDS011;68938;48.150;14.004;2023-09-12T02:29:46;26.93;;;24.57;;
3259;SDS011;68938;48.150;14.004;2023-09-12T02:32:14;25.20;;;22.90;;
3259;SDS011;68938;48.150;14.004;2023-09-12T02:34:43;22.73;;;20.73;;
3259;SDS011;68938;48.150;14.004;2023-09-12T02:37:11;25.67;;;23.03;;
3259;SDS011;68938;48.150;14.004;2023-09-12T02:39:40;23.60;;;21.07;;
3259;SDS011;68938;48.150;14.004;2023-09-12T02:42:09;21.87;;;19.93;;
3259;SDS011;68938;48.150;14.004;2023-09-12T02:44:38;26.73;;;21.40;;
3259;SDS011;68938;48.150;14.004;2023-09-12T02:47:05;23.57;;;21.47;;
3259;SDS011;68938;48.150;14.004;2023-09-12T02:49:33;23.67;;;20.77;;
3259;SDS011;68938;48.150;14.004;2023-09-12T02:52:00;23.23;;;21.03;;
3259;SDS011;68938;48.150;14.004;2023-09-12T02:54:28;22.87;;;20.87;;
3259;SDS011;68938;48.150;14.004;2023-09-12T02:56:56;23.47;;;21.27;;
3259;SDS011;68938;48.150;14.004;2023-09-12T02:59:24;27.10;;;22.60;;
3259;SDS011;68938;48.150;14.004;2023-09-12T03:01:51;25.77;;;23.33;;
3259;SDS011;68938;48.150;14.004;2023-09-12T03:04:18;24.97;;;22.47;;
3259;SDS011;68938;48.150;14.004;2023-09-12T03:06:45;26.30;;;23.90;;
3259;SDS011;68938;48.150;14.004;2023-09-12T03:09:15;25.40;;;23.10;;
3259;SDS011;68938;48.150;14.004;2023-09-12T03:11:42;26.20;;;23.43;;
3259;SDS011;68938;48.150;14.004;2023-09-12T03:14:10;25.70;;;23.20;;
3259;SDS011;68938;48.150;14.004;2023-09-12T03:16:39;26.20;;;23.67;;
3259;SDS011;68938;48.150;14.004;2023-09-12T03:19:06;25.20;;;22.90;;
3259;SDS011;68938;48.150;14.004;2023-09-12T03:21:33;24.47;;;22.17;;
3259;SDS011;68938;48.150;14.004;2023-09-12T03:24:01;25.80;;;23.30;;
3259;SDS011;68938;48.150;14.004;2023-09-12T03:26:29;23.97;;;21.87;;
3259;SDS011;68938;48.150;14.004;2023-09-12T03:28:59;23.53;;;21.13;;
3259;SDS011;68938;48.150;14.004;2023-09-12T03:31:27;27.90;;;25.07;;
3259;SDS011;68938;48.150;14.004;2023-09-12T03:33:55;25.10;;;22.80;;
3259;SDS011;68938;48.150;14.004;2023-09-12T03:36:22;24.67;;;22.57;;
3259;SDS011;68938;48.150;14.004;2023-09-12T03:38:50;25.30;;;23.13;;
3259;SDS011;68938;48.150;14.004;2023-09-12T03:41:17;26.13;;;23.73;;
3259;SDS011;68938;48.150;14.004;2023-09-12T03:43:45;24.27;;;22.03;;
3259;SDS011;68938;48.150;14.004;2023-09-12T03:46:12;26.43;;;23.93;;
3259;SDS011;68938;48.150;14.004;2023-09-12T03:48:41;23.63;;;21.33;;
3259;SDS011;68938;48.150;14.004;2023-09-12T03:51:09;25.00;;;22.60;;
3259;SDS011;68938;48.150;14.004;2023-09-12T03:53:39;26.33;;;23.57;;
3259;SDS011;68938;48.150;14.004;2023-09-12T03:56:07;25.43;;;22.37;;
3259;SDS011;68938;48.150;14.004;2023-09-12T03:58:34;24.20;;;21.80;;
3259;SDS011;68938;48.150;14.004;2023-09-12T04:01:01;26.37;;;23.83;;
3259;SDS011;68938;48.150;14.004;2023-09-12T04:03:28;24.27;;;21.90;;
3259;SDS011;68938;48.150;14.004;2023-09-12T04:05:56;25.47;;;23.07;;
3259;SDS011;68938;48.150;14.004;2023-09-12T04:08:23;24.80;;;22.40;;
3259;SDS011;68938;48.150;14.004;2023-09-12T04:10:50;24.70;;;22.40;;
3259;SDS011;68938;48.150;14.004;2023-09-12T04:13:17;24.10;;;21.90;;
3259;SDS011;68938;48.150;14.004;2023-09-12T04:15:45;26.07;;;23.37;;
3259;SDS011;68938;48.150;14.004;2023-09-12T04:18:15;26.67;;;24.07;;
3259;SDS011;68938;48.150;14.004;2023-09-12T04:20:42;26.60;;;24.20;;
3259;SDS011;68938;48.150;14.004;2023-09-12T04:23:09;25.27;;;22.90;;
3259;SDS011;68938;48.150;14.004;2023-09-12T04:25:41;25.10;;;22.73;;
3259;SDS011;68938;48.150;14.004;2023-09-12T04:28:09;25.13;;;22.70;;
3259;SDS011;68938;48.150;14.004;2023-09-12T04:30:36;23.87;;;21.47;;
3259;SDS011;68938;48.150;14.004;2023-09-12T04:33:03;24.20;;;21.90;;
3259;SDS011;68938;48.150;14.004;2023-09-12T04:35:34;25.20;;;23.03;;
3259;SDS011;68938;48.150;14.004;2023-09-12T04:38:01;23.90;;;21.60;;
3259;SDS011;68938;48.150;14.004;2023-09-12T04:40:29;25.10;;;22.97;;
3259;SDS011;68938;48.150;14.004;2023-09-12T04:42:57;24.20;;;22.20;;
3259;SDS011;68938;48.150;14.004;2023-09-12T04:45:25;23.67;;;21.53;;
3259;SDS011;68938;48.150;14.004;2023-09-12T04:47:53;22.90;;;20.90;;
3259;SDS011;68938;48.150;14.004;2023-09-12T04:50:21;23.93;;;21.60;;
3259;SDS011;68938;48.150;14.004;2023-09-12T04:52:48;22.47;;;20.30;;
3259;SDS011;68938;48.150;14.004;2023-09-12T04:55:15;23.30;;;21.30;;
3259;SDS011;68938;48.150;14.004;2023-09-12T04:57:45;23.40;;;21.00;;
3259;SDS011;68938;48.150;14.004;2023-09-12T05:00:13;23.20;;;20.90;;
3259;SDS011;68938;48.150;14.004;2023-09-12T05:02:40;24.70;;;22.30;;
3259;SDS011;68938;48.150;14.004;2023-09-12T05:05:09;26.37;;;23.53;;
3259;SDS011;68938;48.150;14.004;2023-09-12T05:07:37;26.43;;;23.73;;
3259;SDS011;68938;48.150;14.004;2023-09-12T05:10:06;25.07;;;22.47;;
3259;SDS011;68938;48.150;14.004;2023-09-12T05:12:33;24.70;;;22.43;;
3259;SDS011;68938;48.150;14.004;2023-09-12T05:15:00;25.20;;;22.80;;
3259;SDS011;68938;48.150;14.004;2023-09-12T05:17:29;24.67;;;22.33;;
3259;SDS011;68938;48.150;14.004;2023-09-12T05:19:56;24.10;;;21.70;;
3259;SDS011;68938;48.150;14.004;2023-09-12T05:22:23;24.17;;;21.53;;
3259;SDS011;68938;48.150;14.004;2023-09-12T05:24:52;24.50;;;22.00;;
3259;SDS011;68938;48.150;14.004;2023-09-12T05:27:19;24.13;;;21.60;;
3259;SDS011;68938;48.150;14.004;2023-09-12T05:29:49;25.97;;;22.63;;
3259;SDS011;68938;48.150;14.004;2023-09-12T05:32:17;27.50;;;23.53;;
3259;SDS011;68938;48.150;14.004;2023-09-12T05:34:45;27.13;;;24.00;;
3259;SDS011;68938;48.150;14.004;2023-09-12T05:37:12;27.20;;;24.60;;
3259;SDS011;68938;48.150;14.004;2023-09-12T05:39:39;25.57;;;23.17;;
3259;SDS011;68938;48.150;14.004;2023-09-12T05:42:08;27.87;;;25.17;;
3259;SDS011;68938;48.150;14.004;2023-09-12T05:44:35;27.27;;;24.10;;
3259;SDS011;68938;48.150;14.004;2023-09-12T05:47:02;24.50;;;22.20;;
3259;SDS011;68938;48.150;14.004;2023-09-12T05:49:32;27.27;;;24.77;;
3259;SDS011;68938;48.150;14.004;2023-09-12T05:52:00;28.00;;;25.50;;
3259;SDS011;68938;48.150;14.004;2023-09-12T05:54:28;30.30;;;27.50;;
3259;SDS011;68938;48.150;14.004;2023-09-12T05:56:55;24.80;;;22.53;;
3259;SDS011;68938;48.150;14.004;2023-09-12T05:59:23;29.10;;;26.10;;
3259;SDS011;68938;48.150;14.004;2023-09-12T06:01:50;28.40;;;25.87;;
3259;SDS011;68938;48.150;14.004;2023-09-12T06:04:19;30.17;;;26.97;;
3259;SDS011;68938;48.150;14.004;2023-09-12T06:06:46;27.80;;;25.03;;
3259;SDS011;68938;48.150;14.004;2023-09-12T06:09:13;29.37;;;26.57;;
3259;SDS011;68938;48.150;14.004;2023-09-12T06:11:40;27.27;;;24.57;;
3259;SDS011;68938;48.150;14.004;2023-09-12T06:14:08;29.13;;;26.27;;
3259;SDS011;68938;48.150;14.004;2023-09-12T06:16:35;27.07;;;24.13;;
3259;SDS011;68938;48.150;14.004;2023-09-12T06:19:03;27.60;;;24.80;;
3259;SDS011;68938;48.150;14.004;2023-09-12T06:21:31;26.90;;;24.23;;
3259;SDS011;68938;48.150;14.004;2023-09-12T06:24:10;27.20;;;24.50;;
3259;SDS011;68938;48.150;14.004;2023-09-12T06:26:43;27.40;;;24.73;;
3259;SDS011;68938;48.150;14.004;2023-09-12T06:29:10;25.43;;;22.90;;
3259;SDS011;68938;48.150;14.004;2023-09-12T06:31:37;26.10;;;23.83;;
3259;SDS011;68938;48.150;14.004;2023-09-12T06:34:06;26.13;;;23.50;;
3259;SDS011;68938;48.150;14.004;2023-09-12T06:36:34;27.10;;;24.57;;
3259;SDS011;68938;48.150;14.004;2023-09-12T06:39:02;28.80;;;24.07;;
3259;SDS011;68938;48.150;14.004;2023-09-12T06:41:29;26.43;;;23.83;;
3259;SDS011;68938;48.150;14.004;2023-09-12T06:43:56;25.77;;;23.37;;
3259;SDS011;68938;48.150;14.004;2023-09-12T06:46:24;26.23;;;23.80;;
3259;SDS011;68938;48.150;14.004;2023-09-12T06:48:54;27.17;;;24.37;;
3259;SDS011;68938;48.150;14.004;2023-09-12T06:51:26;27.07;;;24.33;;
3259;SDS011;68938;48.150;14.004;2023-09-12T06:54:01;26.97;;;24.40;;
3259;SDS011;68938;48.150;14.004;2023-09-12T06:56:29;24.57;;;22.50;;
3259;SDS011;68938;48.150;14.004;2023-09-12T06:58:57;25.87;;;23.47;;
3259;SDS011;68938;48.150;14.004;2023-09-12T07:01:24;27.37;;;24.00;;
3259;SDS011;68938;48.150;14.004;2023-09-12T07:03:52;25.63;;;23.30;;
3259;SDS011;68938;48.150;14.004;2023-09-12T07:06:19;25.03;;;22.70;;
3259;SDS011;68938;48.150;14.004;2023-09-12T07:08:46;27.10;;;24.50;;
3259;SDS011;68938;48.150;14.004;2023-09-12T07:11:14;25.27;;;22.57;;
3259;SDS011;68938;48.150;14.004;2023-09-12T07:13:41;23.93;;;21.67;;
3259;SDS011;68938;48.150;14.004;2023-09-12T07:16:09;25.40;;;22.80;;
3259;SDS011;68938;48.150;14.004;2023-09-12T07:18:37;24.93;;;22.63;;
3259;SDS011;68938;48.150;14.004;2023-09-12T07:21:05;23.27;;;21.20;;
3259;SDS011;68938;48.150;14.004;2023-09-12T07:23:33;25.23;;;22.77;;
3259;SDS011;68938;48.150;14.004;2023-09-12T07:26:00;24.73;;;22.67;;
3259;SDS011;68938;48.150;14.004;2023-09-12T07:28:27;24.87;;;22.50;;
3259;SDS011;68938;48.150;14.004;2023-09-12T07:30:57;25.77;;;23.10;;
3259;SDS011;68938;48.150;14.004;2023-09-12T07:33:24;25.43;;;23.13;;
3259;SDS011;68938;48.150;14.004;2023-09-12T07:35:52;24.40;;;21.93;;
3259;SDS011;68938;48.150;14.004;2023-09-12T07:38:20;26.60;;;24.30;;
3259;SDS011;68938;48.150;14.004;2023-09-12T07:40:48;26.70;;;21.47;;
3259;SDS011;68938;48.150;14.004;2023-09-12T07:43:16;25.47;;;23.27;;
3259;SDS011;68938;48.150;14.004;2023-09-12T07:45:44;25.33;;;23.10;;
3259;SDS011;68938;48.150;14.004;2023-09-12T07:48:11;23.10;;;21.17;;
3259;SDS011;68938;48.150;14.004;2023-09-12T07:50:39;24.47;;;22.03;;
3259;SDS011;68938;48.150;14.004;2023-09-12T07:53:06;23.97;;;21.83;;
3259;SDS011;68938;48.150;14.004;2023-09-12T07:55:37;26.50;;;24.10;;
3259;SDS011;68938;48.150;14.004;2023-09-12T07:58:04;25.03;;;22.40;;
3259;SDS011;68938;48.150;14.004;2023-09-12T08:00:31;25.07;;;22.40;;
3259;SDS011;68938;48.150;14.004;2023-09-12T08:02:58;23.97;;;21.83;;
3259;SDS011;68938;48.150;14.004;2023-09-12T08:05:25;25.07;;;22.90;;
3259;SDS011;68938;48.150;14.004;2023-09-12T08:07:53;25.63;;;23.30;;
3259;SDS011;68938;48.150;14.004;2023-09-12T08:10:21;25.47;;;23.27;;
3259;SDS011;68938;48.150;14.004;2023-09-12T08:12:48;22.77;;;20.83;;
3259;SDS011;68938;48.150;14.004;2023-09-12T08:15:15;23.87;;;21.43;;
3259;SDS011;68938;48.150;14.004;2023-09-12T08:17:43;21.97;;;20.10;;
3259;SDS011;68938;48.150;14.004;2023-09-12T08:20:10;25.27;;;22.60;;
3259;SDS011;68938;48.150;14.004;2023-09-12T08:22:38;23.60;;;21.33;;
3259;SDS011;68938;48.150;14.004;2023-09-12T08:25:05;24.63;;;22.27;;
3259;SDS011;68938;48.150;14.004;2023-09-12T08:27:33;23.27;;;21.07;;
3259;SDS011;68938;48.150;14.004;2023-09-12T08:30:00;22.77;;;20.70;;
3259;SDS011;68938;48.150;14.004;2023-09-12T08:32:28;23.27;;;21.37;;
3259;SDS011;68938;48.150;14.004;2023-09-12T08:34:56;24.00;;;21.43;;
3259;SDS011;68938;48.150;14.004;2023-09-12T08:37:23;22.87;;;20.80;;
3259;SDS011;68938;48.150;14.004;2023-09-12T08:39:50;23.10;;;20.90;;
3259;SDS011;68938;48.150;14.004;2023-09-12T08:42:17;25.00;;;22.70;;
3259;SDS011;68938;48.150;14.004;2023-09-12T08:44:46;23.70;;;21.57;;
3259;SDS011;68938;48.150;14.004;2023-09-12T08:47:14;24.97;;;22.57;;
3259;SDS011;68938;48.150;14.004;2023-09-12T08:49:45;25.43;;;20.80;;
3259;SDS011;68938;48.150;14.004;2023-09-12T08:52:13;23.17;;;20.97;;
3259;SDS011;68938;48.150;14.004;2023-09-12T08:54:40;21.27;;;19.20;;
3259;SDS011;68938;48.150;14.004;2023-09-12T08:57:07;23.70;;;21.50;;
3259;SDS011;68938;48.150;14.004;2023-09-12T08:59:37;22.93;;;20.97;;
3259;SDS011;68938;48.150;14.004;2023-09-12T09:02:07;23.00;;;21.00;;
3259;SDS011;68938;48.150;14.004;2023-09-12T09:04:36;22.40;;;20.27;;
3259;SDS011;68938;48.150;14.004;2023-09-12T09:07:06;22.43;;;20.33;;
3259;SDS011;68938;48.150;14.004;2023-09-12T09:09:35;22.83;;;20.47;;
3259;SDS011;68938;48.150;14.004;2023-09-12T09:12:06;20.80;;;19.00;;
3259;SDS011;68938;48.150;14.004;2023-09-12T09:14:34;22.23;;;20.20;;
3259;SDS011;68938;48.150;14.004;2023-09-12T09:17:01;22.33;;;20.43;;
3259;SDS011;68938;48.150;14.004;2023-09-12T09:19:42;20.93;;;19.10;;
3259;SDS011;68938;48.150;14.004;2023-09-12T09:22:10;20.73;;;18.93;;
3259;SDS011;68938;48.150;14.004;2023-09-12T09:24:41;21.67;;;19.87;;
3259;SDS011;68938;48.150;14.004;2023-09-12T09:27:08;20.07;;;18.27;;
3259;SDS011;68938;48.150;14.004;2023-09-12T09:29:47;18.37;;;16.73;;
3259;SDS011;68938;48.150;14.004;2023-09-12T09:32:18;20.27;;;18.23;;
3259;SDS011;68938;48.150;14.004;2023-09-12T09:34:48;21.10;;;19.00;;
3259;SDS011;68938;48.150;14.004;2023-09-12T09:37:17;20.83;;;19.00;;
3259;SDS011;68938;48.150;14.004;2023-09-12T09:39:44;20.40;;;18.30;;
3259;SDS011;68938;48.150;14.004;2023-09-12T09:42:13;19.80;;;18.00;;
3259;SDS011;68938;48.150;14.004;2023-09-12T09:44:42;21.70;;;19.80;;
3259;SDS011;68938;48.150;14.004;2023-09-12T09:47:11;20.77;;;18.73;;
3259;SDS011;68938;48.150;14.004;2023-09-12T09:49:39;19.07;;;17.37;;
3259;SDS011;68938;48.150;14.004;2023-09-12T09:52:07;20.03;;;18.43;;
3259;SDS011;68938;48.150;14.004;2023-09-12T09:54:34;18.40;;;16.77;;
3259;SDS011;68938;48.150;14.004;2023-09-12T09:57:10;20.33;;;18.43;;
3259;SDS011;68938;48.150;14.004;2023-09-12T09:59:37;21.43;;;19.50;;
3259;SDS011;68938;48.150;14.004;2023-09-12T10:02:04;18.47;;;16.93;;
3259;SDS011;68938;48.150;14.004;2023-09-12T10:04:40;20.73;;;19.03;;
3259;SDS011;68938;48.150;14.004;2023-09-12T10:07:12;20.90;;;18.90;;
3259;SDS011;68938;48.150;14.004;2023-09-12T10:09:44;19.70;;;18.03;;
3259;SDS011;68938;48.150;14.004;2023-09-12T10:12:12;20.63;;;18.93;;
3259;SDS011;68938;48.150;14.004;2023-09-12T10:14:39;17.40;;;16.00;;
3259;SDS011;68938;48.150;14.004;2023-09-12T10:17:10;17.20;;;15.70;;
3259;SDS011;68938;48.150;14.004;2023-09-12T10:19:43;19.73;;;18.03;;
3259;SDS011;68938;48.150;14.004;2023-09-12T10:22:22;19.30;;;17.40;;
3259;SDS011;68938;48.150;14.004;2023-09-12T10:25:06;17.97;;;16.47;;
3259;SDS011;68938;48.150;14.004;2023-09-12T10:27:34;20.40;;;18.70;;
3259;SDS011;68938;48.150;14.004;2023-09-12T10:30:02;18.50;;;17.10;;
3259;SDS011;68938;48.150;14.004;2023-09-12T10:32:33;20.10;;;18.30;;
3259;SDS011;68938;48.150;14.004;2023-09-12T10:35:01;20.03;;;18.43;;
3259;SDS011;68938;48.150;14.004;2023-09-12T10:37:29;21.07;;;18.97;;
3259;SDS011;68938;48.150;14.004;2023-09-12T10:39:59;18.50;;;17.00;;
3259;SDS011;68938;48.150;14.004;2023-09-12T10:42:29;21.57;;;19.87;;
3259;SDS011;68938;48.150;14.004;2023-09-12T10:44:59;23.10;;;21.10;;
3259;SDS011;68938;48.150;14.004;2023-09-12T10:47:28;22.93;;;21.03;;
3259;SDS011;68938;48.150;14.004;2023-09-12T10:49:59;24.90;;;22.70;;
3259;SDS011;68938;48.150;14.004;2023-09-12T10:52:27;23.97;;;21.67;;
3259;SDS011;68938;48.150;14.004;2023-09-12T10:54:57;23.27;;;20.93;;
3259;SDS011;68938;48.150;14.004;2023-09-12T10:57:24;21.07;;;19.07;;
3259;SDS011;68938;48.150;14.004;2023-09-12T11:02:29;18.27;;;16.60;;
3259;SDS011;68938;48.150;14.004;2023-09-12T11:04:59;17.50;;;15.90;;
3259;SDS011;68938;48.150;14.004;2023-09-12T11:12:43;15.63;;;13.90;;
3259;SDS011;68938;48.150;14.004;2023-09-12T11:15:16;15.10;;;13.80;;
3259;SDS011;68938;48.150;14.004;2023-09-12T11:17:49;12.70;;;11.70;;
3259;SDS011;68938;48.150;14.004;2023-09-12T11:20:48;12.57;;;11.27;;
3259;SDS011;68938;48.150;14.004;2023-09-12T11:23:19;10.40;;;9.40;;
3259;SDS011;68938;48.150;14.004;2023-09-12T11:25:49;12.70;;;11.60;;
3259;SDS011;68938;48.150;14.004;2023-09-12T11:28:33;12.93;;;11.87;;
3259;SDS011;68938;48.150;14.004;2023-09-12T11:31:01;13.67;;;11.10;;
3259;SDS011;68938;48.150;14.004;2023-09-12T11:33:28;13.23;;;12.30;;
3259;SDS011;68938;48.150;14.004;2023-09-12T11:35:56;12.87;;;11.77;;
3259;SDS011;68938;48.150;14.004;2023-09-12T11:38:27;13.23;;;12.10;;
3259;SDS011;68938;48.150;14.004;2023-09-12T11:41:00;14.70;;;13.30;;
3259;SDS011;68938;48.150;14.004;2023-09-12T11:43:28;12.80;;;11.80;;
3259;SDS011;68938;48.150;14.004;2023-09-12T11:45:55;12.27;;;11.23;;
3259;SDS011;68938;48.150;14.004;2023-09-12T11:48:25;10.50;;;9.73;;
3259;SDS011;68938;48.150;14.004;2023-09-12T11:50:56;11.27;;;10.47;;
3259;SDS011;68938;48.150;14.004;2023-09-12T11:53:25;11.57;;;10.60;;
3259;SDS011;68938;48.150;14.004;2023-09-12T11:55:55;10.43;;;9.63;;
3259;SDS011;68938;48.150;14.004;2023-09-12T11:58:25;11.70;;;10.67;;
3259;SDS011;68938;48.150;14.004;2023-09-12T12:00:56;10.90;;;10.10;;
3259;SDS011;68938;48.150;14.004;2023-09-12T12:03:26;10.07;;;9.37;;
3259;SDS011;68938;48.150;14.004;2023-09-12T12:05:55;9.77;;;8.90;;
3259;SDS011;68938;48.150;14.004;2023-09-12T12:08:25;10.80;;;9.77;;
3259;SDS011;68938;48.150;14.004;2023-09-12T12:10:58;9.33;;;8.43;;
3259;SDS011;68938;48.150;14.004;2023-09-12T12:13:27;9.67;;;8.73;;
3259;SDS011;68938;48.150;14.004;2023-09-12T12:15:56;9.50;;;8.80;;
3259;SDS011;68938;48.150;14.004;2023-09-12T12:18:23;11.20;;;8.87;;
3259;SDS011;68938;48.150;14.004;2023-09-12T12:20:51;7.53;;;7.03;;
3259;SDS011;68938;48.150;14.004;2023-09-12T12:23:19;9.00;;;8.40;;
3259;SDS011;68938;48.150;14.004;2023-09-12T12:25:46;8.47;;;7.83;;
3259;SDS011;68938;48.150;14.004;2023-09-12T12:28:13;8.90;;;8.30;;
3259;SDS011;68938;48.150;14.004;2023-09-12T12:30:43;8.80;;;8.10;;
3259;SDS011;68938;48.150;14.004;2023-09-12T12:33:10;8.93;;;8.10;;
3259;SDS011;68938;48.150;14.004;2023-09-12T12:36:02;9.23;;;8.57;;
3259;SDS011;68938;48.150;14.004;2023-09-12T12:38:34;8.30;;;7.57;;
3259;SDS011;68938;48.150;14.004;2023-09-12T12:41:13;9.20;;;8.50;;
3259;SDS011;68938;48.150;14.004;2023-09-12T12:43:43;8.87;;;8.27;;
3259;SDS011;68938;48.150;14.004;2023-09-12T12:46:11;10.00;;;9.13;;
3259;SDS011;68938;48.150;14.004;2023-09-12T12:48:42;8.47;;;7.70;;
3259;SDS011;68938;48.150;14.004;2023-09-12T12:53:52;8.80;;;8.30;;
3259;SDS011;68938;48.150;14.004;2023-09-12T12:56:29;8.30;;;7.80;;
3259;SDS011;68938;48.150;14.004;2023-09-12T12:58:58;7.80;;;7.30;;
3259;SDS011;68938;48.150;14.004;2023-09-12T13:01:29;7.93;;;7.43;;
3259;SDS011;68938;48.150;14.004;2023-09-12T13:03:57;8.07;;;7.47;;
3259;SDS011;68938;48.150;14.004;2023-09-12T13:06:25;8.23;;;7.70;;
3259;SDS011;68938;48.150;14.004;2023-09-12T13:08:53;9.77;;;9.03;;
3259;SDS011;68938;48.150;14.004;2023-09-12T13:11:21;7.87;;;7.27;;
3259;SDS011;68938;48.150;14.004;2023-09-12T13:13:48;8.17;;;7.67;;
3259;SDS011;68938;48.150;14.004;2023-09-12T13:16:17;10.73;;;8.40;;
3259;SDS011;68938;48.150;14.004;2023-09-12T13:18:44;9.23;;;8.37;;
3259;SDS011;68938;48.150;14.004;2023-09-12T13:21:11;9.87;;;9.17;;
3259;SDS011;68938;48.150;14.004;2023-09-12T13:23:39;9.50;;;8.87;;
3259;SDS011;68938;48.150;14.004;2023-09-12T13:26:08;8.27;;;7.87;;
3259;SDS011;68938;48.150;14.004;2023-09-12T13:28:36;9.80;;;8.97;;
3259;SDS011;68938;48.150;14.004;2023-09-12T13:31:04;10.73;;;9.83;;
3259;SDS011;68938;48.150;14.004;2023-09-12T13:33:31;10.10;;;9.30;;
3259;SDS011;68938;48.150;14.004;2023-09-12T13:35:59;9.43;;;8.83;;
3259;SDS011;68938;48.150;14.004;2023-09-12T13:38:28;9.60;;;8.90;;
3259;SDS011;68938;48.150;14.004;2023-09-12T13:40:55;10.60;;;9.87;;
3259;SDS011;68938;48.150;14.004;2023-09-12T13:43:22;10.13;;;9.33;;
3259;SDS011;68938;48.150;14.004;2023-09-12T13:45:49;10.43;;;9.63;;
3259;SDS011;68938;48.150;14.004;2023-09-12T13:48:17;9.77;;;8.97;;
3259;SDS011;68938;48.150;14.004;2023-09-12T13:50:44;9.53;;;8.93;;
3259;SDS011;68938;48.150;14.004;2023-09-12T13:53:11;10.23;;;9.43;;
3259;SDS011;68938;48.150;14.004;2023-09-12T13:55:37;10.10;;;9.30;;
3259;SDS011;68938;48.150;14.004;2023-09-12T13:58:25;10.57;;;9.77;;
3259;SDS011;68938;48.150;14.004;2023-09-12T14:01:03;10.80;;;9.80;;
3259;SDS011;68938;48.150;14.004;2023-09-12T14:03:30;10.90;;;10.00;;
3259;SDS011;68938;48.150;14.004;2023-09-12T14:05:59;10.83;;;10.03;;
3259;SDS011;68938;48.150;14.004;2023-09-12T14:08:26;10.40;;;9.60;;
3259;SDS011;68938;48.150;14.004;2023-09-12T14:10:55;10.67;;;9.97;;
3259;SDS011;68938;48.150;14.004;2023-09-12T14:13:25;11.13;;;10.20;;
3259;SDS011;68938;48.150;14.004;2023-09-12T14:15:52;10.60;;;9.60;;
3259;SDS011;68938;48.150;14.004;2023-09-12T14:18:21;10.53;;;9.70;;
3259;SDS011;68938;48.150;14.004;2023-09-12T14:20:50;11.00;;;10.00;;
3259;SDS011;68938;48.150;14.004;2023-09-12T14:23:19;11.23;;;10.33;;
3259;SDS011;68938;48.150;14.004;2023-09-12T14:25:46;10.50;;;9.80;;
3259;SDS011;68938;48.150;14.004;2023-09-12T14:28:15;11.93;;;11.13;;
3259;SDS011;68938;48.150;14.004;2023-09-12T14:30:44;11.47;;;10.37;;
3259;SDS011;68938;48.150;14.004;2023-09-12T14:33:12;11.20;;;10.30;;
3259;SDS011;68938;48.150;14.004;2023-09-12T14:35:43;11.53;;;10.43;;
3259;SDS011;68938;48.150;14.004;2023-09-12T14:38:11;10.50;;;9.50;;
3259;SDS011;68938;48.150;14.004;2023-09-12T14:40:38;9.77;;;8.97;;
3259;SDS011;68938;48.150;14.004;2023-09-12T14:43:11;11.50;;;10.50;;
3259;SDS011;68938;48.150;14.004;2023-09-12T14:45:41;11.00;;;9.90;;
3259;SDS011;68938;48.150;14.004;2023-09-12T14:48:09;9.90;;;9.20;;
3259;SDS011;68938;48.150;14.004;2023-09-12T14:50:36;9.40;;;8.80;;
3259;SDS011;68938;48.150;14.004;2023-09-12T14:53:09;11.40;;;10.50;;